createdAt,value
2023-03-25T00:02:27.494Z,99.90
2023-03-25T00:04:56.312Z,99.90
2023-03-25T00:07:24.720Z,99.90
2023-03-25T00:09:53.316Z,99.90
2023-03-25T00:12:21.809Z,99.90
2023-03-25T00:14:55.093Z,99.90
2023-03-25T00:17:26.821Z,99.90
2023-03-25T00:19:55.589Z,99.90
2023-03-25T00:22:24.381Z,99.90
2023-03-25T00:24:52.996Z,99.90
2023-03-25T00:27:21.762Z,99.90
2023-03-25T00:29:50.197Z,99.90
2023-03-25T00:32:21.046Z,99.90
2023-03-25T00:34:52.595Z,99.90
2023-03-25T00:37:22.017Z,99.90
2023-03-25T00:39:50.943Z,99.90
2023-03-25T00:42:26.290Z,99.90
2023-03-25T00:44:54.902Z,99.90
2023-03-25T00:47:23.434Z,99.90
2023-03-25T00:49:53.541Z,99.90
2023-03-25T00:52:23.257Z,99.90
2023-03-25T00:54:52.910Z,99.90
2023-03-25T00:57:21.351Z,99.90
2023-03-25T00:59:51.432Z,99.90
2023-03-25T01:02:21.741Z,99.90
2023-03-25T01:04:51.013Z,99.90
2023-03-25T01:07:20.828Z,99.90
2023-03-25T01:09:49.751Z,99.90
2023-03-25T01:12:19.319Z,99.90
2023-03-25T01:14:47.898Z,99.90
2023-03-25T01:17:16.425Z,99.90
2023-03-25T01:19:44.911Z,99.90
2023-03-25T01:22:13.518Z,99.90
2023-03-25T01:24:43.540Z,99.90
2023-03-25T01:27:12.200Z,99.90
2023-03-25T01:29:40.751Z,99.90
2023-03-25T01:32:09.107Z,99.90
2023-03-25T01:34:38.778Z,99.90
2023-03-25T01:37:07.984Z,99.90
2023-03-25T01:39:37.114Z,99.90
2023-03-25T01:42:07.178Z,99.90
2023-03-25T01:45:12.742Z,99.90
2023-03-25T01:47:41.333Z,99.90
2023-03-25T01:50:15.268Z,99.90
2023-03-25T01:52:45.223Z,99.90
2023-03-25T01:55:13.619Z,99.90
2023-03-25T01:57:46.432Z,99.90
2023-03-25T02:00:16.428Z,99.90
2023-03-25T02:02:45.897Z,99.90
2023-03-25T02:05:19.602Z,99.90
2023-03-25T02:07:49.183Z,99.90
2023-03-25T02:10:17.656Z,99.90
2023-03-25T02:12:47.697Z,99.90
2023-03-25T02:15:16.906Z,99.90
2023-03-25T02:18:04.281Z,99.90
2023-03-25T02:21:11.634Z,99.90
2023-03-25T02:24:04.694Z,99.90
2023-03-25T02:27:02.189Z,99.90
2023-03-25T02:29:38.721Z,99.90
2023-03-25T02:32:15.537Z,99.90
2023-03-25T02:35:07.362Z,99.90
2023-03-25T02:37:58.458Z,99.90
2023-03-25T02:40:27.890Z,99.90
2023-03-25T02:42:56.943Z,99.90
2023-03-25T02:45:27.215Z,99.90
2023-03-25T02:47:56.385Z,99.90
2023-03-25T02:50:26.807Z,99.90
2023-03-25T02:52:57.820Z,99.90
2023-03-25T02:55:28.879Z,99.90
2023-03-25T02:57:57.391Z,99.90
2023-03-25T03:00:27.596Z,99.90
2023-03-25T03:03:00.524Z,99.90
2023-03-25T03:05:32.693Z,99.90
2023-03-25T03:08:10.488Z,99.90
2023-03-25T03:10:42.844Z,99.90
2023-03-25T03:13:16.756Z,99.90
2023-03-25T03:15:50.059Z,99.90
2023-03-25T03:18:27.690Z,99.90
2023-03-25T03:20:57.785Z,99.90
2023-03-25T03:23:29.384Z,99.90
2023-03-25T03:25:57.984Z,99.90
2023-03-25T03:28:29.465Z,99.90
2023-03-25T03:31:00.092Z,99.90
2023-03-25T03:33:32.260Z,99.90
2023-03-25T03:36:02.286Z,99.90
2023-03-25T03:38:35.352Z,99.90
2023-03-25T03:41:06.182Z,99.90
2023-03-25T03:43:37.957Z,99.90
2023-03-25T03:46:07.723Z,99.90
2023-03-25T03:48:38.912Z,99.90
2023-03-25T03:51:09.564Z,99.90
2023-03-25T03:53:40.354Z,99.90
2023-03-25T03:56:10.075Z,99.90
2023-03-25T03:58:43.232Z,99.90
2023-03-25T04:01:13.084Z,99.90
2023-03-25T04:03:43.241Z,99.90
2023-03-25T04:06:18.382Z,99.90
2023-03-25T04:08:58.993Z,99.90
2023-03-25T04:11:28.902Z,99.90
2023-03-25T04:13:57.283Z,99.90
2023-03-25T04:16:25.829Z,99.90
2023-03-25T04:18:55.205Z,99.90
2023-03-25T04:21:23.584Z,99.90
2023-03-25T04:23:53.476Z,99.90
2023-03-25T04:26:22.803Z,99.90
2023-03-25T04:28:51.285Z,99.90
2023-03-25T04:31:19.729Z,99.90
2023-03-25T04:33:48.714Z,99.90
2023-03-25T04:36:17.318Z,99.90
2023-03-25T04:38:46.475Z,99.90
2023-03-25T04:41:17.629Z,99.90
2023-03-25T04:43:46.153Z,99.90
2023-03-25T04:46:15.389Z,99.90
2023-03-25T04:48:45.263Z,99.90
2023-03-25T04:51:13.679Z,99.90
2023-03-25T04:53:42.278Z,99.90
2023-03-25T04:56:17.210Z,99.90
2023-03-25T04:58:45.746Z,99.90
2023-03-25T05:01:21.293Z,99.90
2023-03-25T05:03:50.490Z,99.90
2023-03-25T05:06:19.177Z,99.90
2023-03-25T05:08:49.906Z,99.90
2023-03-25T05:11:19.813Z,99.90
2023-03-25T05:13:48.120Z,99.90
2023-03-25T05:16:16.533Z,99.90
2023-03-25T05:18:44.954Z,99.90
2023-03-25T05:21:13.772Z,99.90
2023-03-25T05:23:43.374Z,99.90
2023-03-25T05:26:12.237Z,99.90
2023-03-25T05:28:42.873Z,99.90
2023-03-25T05:31:11.355Z,99.90
2023-03-25T05:33:43.110Z,99.90
2023-03-25T05:36:12.274Z,99.90
2023-03-25T05:38:41.952Z,99.90
2023-03-25T05:41:10.989Z,99.90
2023-03-25T05:43:39.546Z,99.90
2023-03-25T05:46:09.732Z,99.90
2023-03-25T05:48:38.257Z,99.90
2023-03-25T05:51:07.397Z,99.90
2023-03-25T05:53:35.745Z,99.90
2023-03-25T05:56:04.354Z,99.90
2023-03-25T05:58:33.300Z,99.90
2023-03-25T06:01:03.358Z,99.90
2023-03-25T06:03:34.582Z,99.90
2023-03-25T06:06:05.397Z,99.90
2023-03-25T06:08:35.429Z,99.90
2023-03-25T06:11:04.433Z,99.90
2023-03-25T06:13:34.182Z,99.90
2023-03-25T06:16:03.422Z,99.90
2023-03-25T06:18:33.583Z,99.90
2023-03-25T06:21:02.269Z,99.90
2023-03-25T06:23:31.468Z,99.90
2023-03-25T06:25:59.857Z,99.90
2023-03-25T06:28:28.211Z,99.90
2023-03-25T06:30:57.295Z,99.90
2023-03-25T06:33:43.106Z,99.90
2023-03-25T06:36:15.496Z,99.90
2023-03-25T06:38:44.414Z,99.90
2023-03-25T06:41:13.958Z,99.90
2023-03-25T06:43:42.744Z,99.90
2023-03-25T06:46:11.454Z,99.90
2023-03-25T06:48:40.830Z,99.90
2023-03-25T06:51:09.718Z,99.90
2023-03-25T06:53:39.906Z,99.90
2023-03-25T06:56:09.330Z,99.90
2023-03-25T06:58:38.194Z,99.90
2023-03-25T07:01:07.881Z,99.90
2023-03-25T07:03:38.003Z,99.90
2023-03-25T07:06:07.465Z,99.90
2023-03-25T07:08:36.256Z,99.90
2023-03-25T07:11:07.420Z,99.90
2023-03-25T07:13:35.866Z,99.90
2023-03-25T07:16:04.278Z,99.90
2023-03-25T07:18:32.719Z,99.90
2023-03-25T07:21:01.370Z,99.90
2023-03-25T07:23:29.682Z,99.90
2023-03-25T07:25:58.070Z,99.90
2023-03-25T07:28:27.977Z,99.90
2023-03-25T07:30:56.277Z,99.90
2023-03-25T07:33:24.614Z,99.90
2023-03-25T07:35:53.249Z,99.90
2023-03-25T07:38:21.718Z,99.90
2023-03-25T07:40:50.623Z,99.90
2023-03-25T07:43:19.218Z,99.90
2023-03-25T07:45:48.968Z,99.90
2023-03-25T07:48:17.234Z,99.90
2023-03-25T07:50:45.860Z,99.90
2023-03-25T07:53:14.168Z,98.40
2023-03-25T07:55:42.503Z,96.40
2023-03-25T07:58:10.842Z,94.20
2023-03-25T08:00:39.329Z,94.40
2023-03-25T08:03:09.131Z,93.80
2023-03-25T08:05:38.093Z,86.40
2023-03-25T08:08:06.931Z,79.00
2023-03-25T08:10:36.148Z,79.00
2023-03-25T08:13:04.442Z,78.00
2023-03-25T08:15:33.349Z,80.90
2023-03-25T08:18:03.274Z,79.00
2023-03-25T08:20:33.001Z,79.90
2023-03-25T08:23:01.364Z,79.00
2023-03-25T08:25:29.848Z,70.60
2023-03-25T08:27:58.188Z,75.00
2023-03-25T08:30:26.540Z,74.80
2023-03-25T08:32:55.562Z,74.70
2023-03-25T08:35:24.226Z,68.20
2023-03-25T08:37:54.095Z,64.30
2023-03-25T08:40:22.620Z,65.10
2023-03-25T08:42:51.019Z,67.10
2023-03-25T08:45:19.498Z,64.20
2023-03-25T08:47:47.887Z,61.10
2023-03-25T08:50:17.035Z,63.00
2023-03-25T08:52:46.224Z,61.40
2023-03-25T08:55:16.509Z,62.30
2023-03-25T08:57:44.999Z,56.30
2023-03-25T09:00:14.552Z,58.10
2023-03-25T09:02:43.638Z,55.10
2023-03-25T09:05:12.392Z,55.90
2023-03-25T09:07:40.840Z,54.10
2023-03-25T09:10:10.423Z,53.10
2023-03-25T09:12:40.289Z,51.20
2023-03-25T09:15:10.033Z,50.00
2023-03-25T09:17:38.389Z,48.80
2023-03-25T09:20:08.593Z,47.90
2023-03-25T09:22:39.604Z,47.40
2023-03-25T09:25:09.014Z,46.50
2023-03-25T09:27:37.722Z,47.40
2023-03-25T09:30:08.857Z,43.60
2023-03-25T09:32:37.512Z,41.70
2023-03-25T09:35:06.377Z,40.80
2023-03-25T09:37:34.682Z,38.60
2023-03-25T09:40:05.501Z,37.70
2023-03-25T09:42:47.489Z,34.80
2023-03-25T09:45:23.219Z,32.30
2023-03-25T09:47:56.600Z,32.70
2023-03-25T09:50:25.298Z,31.90
2023-03-25T09:52:56.136Z,30.30
2023-03-25T09:55:26.612Z,31.30
2023-03-25T09:57:59.126Z,29.40
2023-03-25T10:00:29.059Z,28.90
2023-03-25T10:03:03.434Z,29.60
2023-03-25T10:05:56.597Z,27.50
2023-03-25T10:08:29.008Z,27.30
2023-03-25T10:11:00.642Z,27.20
2023-03-25T10:13:32.097Z,26.80
2023-03-25T10:16:05.249Z,26.90
2023-03-25T10:18:51.329Z,24.60
2023-03-25T10:21:20.880Z,22.30
2023-03-25T10:23:51.764Z,24.20
2023-03-25T10:26:22.545Z,26.90
2023-03-25T10:28:52.194Z,40.50
2023-03-25T10:31:23.759Z,36.40
2023-03-25T10:33:54.386Z,38.70
2023-03-25T10:36:25.027Z,52.70
2023-03-25T10:38:55.609Z,67.20
2023-03-25T10:41:26.582Z,62.60
2023-03-25T10:43:55.026Z,82.20
2023-03-25T10:46:29.674Z,72.00
2023-03-25T10:48:58.178Z,74.50
2023-03-25T10:51:29.034Z,78.30
2023-03-25T10:53:57.357Z,75.80
2023-03-25T10:56:26.851Z,72.70
2023-03-25T10:58:56.195Z,68.80
2023-03-25T11:01:36.614Z,70.50
2023-03-25T11:04:05.766Z,57.10
2023-03-25T11:06:35.937Z,46.30
2023-03-25T11:09:16.007Z,49.10
2023-03-25T11:11:44.507Z,49.00
2023-03-25T11:14:12.980Z,38.60
2023-03-25T11:16:47.660Z,36.90
2023-03-25T11:19:24.336Z,37.50
2023-03-25T11:21:55.610Z,37.30
2023-03-25T11:24:23.883Z,32.60
2023-03-25T11:26:52.774Z,32.50
2023-03-25T11:29:22.274Z,31.40
2023-03-25T11:32:00.243Z,30.40
2023-03-25T11:34:28.800Z,30.60
2023-03-25T11:37:00.944Z,29.10
2023-03-25T11:39:32.305Z,29.90
2023-03-25T11:42:00.743Z,26.70
2023-03-25T11:44:30.269Z,26.40
2023-03-25T11:47:01.610Z,25.10
2023-03-25T11:49:30.009Z,24.20
2023-03-25T11:51:59.186Z,22.00
2023-03-25T11:54:27.727Z,23.40
2023-03-25T11:56:56.133Z,22.90
2023-03-25T11:59:26.024Z,20.50
2023-03-25T12:02:04.000Z,18.40
2023-03-25T12:04:32.535Z,17.00
2023-03-25T12:07:02.106Z,15.00
2023-03-25T12:09:31.562Z,13.70
2023-03-25T12:12:21.697Z,12.20
2023-03-25T12:14:54.482Z,10.70
2023-03-25T12:17:31.084Z,10.00
2023-03-25T12:20:08.225Z,8.40
2023-03-25T12:22:44.860Z,8.00
2023-03-25T12:25:21.277Z,7.00
2023-03-25T12:27:56.826Z,6.20
2023-03-25T12:30:34.785Z,6.00
2023-03-25T12:33:08.266Z,4.20
2023-03-25T12:35:40.683Z,1.90
2023-03-25T12:38:20.098Z,3.10
2023-03-25T12:41:08.683Z,2.30
2023-03-25T12:43:41.077Z,4.50
2023-03-25T12:46:15.018Z,3.80
2023-03-25T12:49:09.196Z,4.90
2023-03-25T12:51:43.051Z,4.70
2023-03-25T12:54:20.016Z,4.00
2023-03-25T12:56:51.920Z,7.70
2023-03-25T12:59:53.851Z,6.70
2023-03-25T13:02:30.122Z,5.60
2023-03-25T13:05:07.027Z,6.40
2023-03-25T13:07:37.977Z,6.70
2023-03-25T13:10:09.128Z,5.20
2023-03-25T13:12:41.060Z,5.30
2023-03-25T13:15:24.503Z,3.80
2023-03-25T13:17:56.118Z,1.10
2023-03-25T13:20:25.950Z,3.10
2023-03-25T13:22:58.005Z,3.40
2023-03-25T13:25:27.833Z,2.10
2023-03-25T13:27:56.719Z,1.00
2023-03-25T13:30:32.345Z,1.00
2023-03-25T13:33:02.855Z,1.00
2023-03-25T13:35:38.637Z,1.00
2023-03-25T13:38:11.278Z,1.00
2023-03-25T13:40:42.354Z,1.00
2023-03-25T13:43:17.177Z,1.00
2023-03-25T13:45:47.301Z,1.00
2023-03-25T13:48:17.613Z,1.00
2023-03-25T13:50:47.879Z,1.00
2023-03-25T13:53:19.170Z,1.00
2023-03-25T13:55:49.545Z,1.00
2023-03-25T13:58:47.908Z,1.00
2023-03-25T14:01:49.373Z,1.00
2023-03-25T14:04:30.428Z,1.00
2023-03-25T14:07:31.422Z,1.00
2023-03-25T14:10:04.836Z,1.00
2023-03-25T14:12:33.747Z,1.00
2023-03-25T14:15:04.345Z,1.00
2023-03-25T14:17:33.107Z,1.00
2023-03-25T14:20:01.486Z,1.00
2023-03-25T14:22:33.932Z,1.00
2023-03-25T14:25:02.346Z,1.00
2023-03-25T14:27:32.620Z,1.00
2023-03-25T14:30:01.573Z,1.00
2023-03-25T14:32:35.443Z,1.00
2023-03-25T14:35:47.211Z,1.00
2023-03-25T14:38:53.384Z,1.00
2023-03-25T14:42:00.150Z,1.00
2023-03-25T14:44:32.937Z,1.00
2023-03-25T14:47:03.071Z,1.00
2023-03-25T14:49:54.413Z,1.00
2023-03-25T14:52:27.170Z,1.00
2023-03-25T14:54:56.947Z,1.00
2023-03-25T14:57:26.202Z,1.00
2023-03-25T14:59:56.124Z,1.00
2023-03-25T15:02:27.256Z,1.00
2023-03-25T15:04:56.999Z,1.00
2023-03-25T15:07:41.076Z,1.00
2023-03-25T15:10:20.199Z,1.00
2023-03-25T15:12:51.307Z,1.00
2023-03-25T15:15:28.344Z,1.00
2023-03-25T15:17:58.385Z,1.00
2023-03-25T15:20:31.726Z,1.00
2023-03-25T15:23:22.359Z,1.00
2023-03-25T15:25:52.765Z,1.00
2023-03-25T15:28:23.100Z,1.00
2023-03-25T15:31:02.080Z,1.00
2023-03-25T15:33:38.527Z,1.00
2023-03-25T15:36:15.442Z,1.00
2023-03-25T15:38:51.269Z,1.00
2023-03-25T15:42:01.736Z,1.00
2023-03-25T15:45:06.268Z,1.00
2023-03-25T15:47:59.768Z,1.00
2023-03-25T15:50:35.231Z,1.00
2023-03-25T15:53:39.585Z,1.00
2023-03-25T15:56:11.572Z,1.00
2023-03-25T15:58:42.843Z,1.00
2023-03-25T16:01:17.113Z,1.00
2023-03-25T16:03:45.782Z,1.00
2023-03-25T16:06:16.313Z,1.00
2023-03-25T16:08:46.104Z,1.00
2023-03-25T16:11:18.402Z,1.00
2023-03-25T16:13:48.454Z,1.00
2023-03-25T16:16:17.375Z,1.00
2023-03-25T16:18:46.318Z,1.00
2023-03-25T16:21:14.588Z,1.00
2023-03-25T16:23:42.941Z,1.00
2023-03-25T16:26:16.347Z,1.00
2023-03-25T16:28:44.883Z,1.00
2023-03-25T16:31:28.269Z,1.00
2023-03-25T16:34:00.321Z,1.00
2023-03-25T16:36:28.673Z,1.00
2023-03-25T16:38:57.817Z,1.00
2023-03-25T16:41:26.187Z,1.00
2023-03-25T16:43:55.101Z,1.00
2023-03-25T16:46:24.987Z,1.00
2023-03-25T16:48:53.967Z,1.00
2023-03-25T16:51:23.273Z,1.00
2023-03-25T16:53:53.764Z,1.00
2023-03-25T16:56:23.923Z,1.00
2023-03-25T16:58:58.136Z,1.00
2023-03-25T17:01:29.413Z,1.00
2023-03-25T17:04:09.366Z,1.00
2023-03-25T17:06:40.053Z,1.00
2023-03-25T17:09:09.967Z,1.00
2023-03-25T17:11:38.261Z,1.00
2023-03-25T17:14:08.502Z,1.00
2023-03-25T17:16:38.407Z,1.00
2023-03-25T17:19:06.783Z,1.00
2023-03-25T17:21:35.873Z,1.00
2023-03-25T17:24:07.366Z,1.00
2023-03-25T17:26:36.487Z,1.00
2023-03-25T17:29:07.397Z,1.00
2023-03-25T17:31:37.998Z,1.00
2023-03-25T17:34:07.591Z,1.00
2023-03-25T17:36:36.662Z,1.00
2023-03-25T17:39:06.064Z,1.00
2023-03-25T17:41:37.937Z,1.00
2023-03-25T17:44:06.545Z,1.00
2023-03-25T17:46:35.308Z,1.00
2023-03-25T17:49:07.559Z,1.00
2023-03-25T17:51:35.849Z,1.00
2023-03-25T17:54:04.173Z,1.00
2023-03-25T17:56:32.500Z,1.00
2023-03-25T17:59:01.849Z,1.00
2023-03-25T18:01:30.921Z,1.00
2023-03-25T18:03:59.342Z,1.00
2023-03-25T18:06:29.193Z,1.00
2023-03-25T18:08:57.791Z,1.00
2023-03-25T18:11:26.156Z,1.00
2023-03-25T18:13:54.774Z,1.00
2023-03-25T18:16:23.278Z,1.00
2023-03-25T18:18:51.918Z,1.00
2023-03-25T18:21:22.560Z,1.00
2023-03-25T18:23:52.482Z,1.00
2023-03-25T18:26:20.936Z,1.00
2023-03-25T18:28:49.448Z,1.00
2023-03-25T18:31:18.195Z,1.00
2023-03-25T18:33:46.740Z,1.00
2023-03-25T18:36:15.194Z,1.00
2023-03-25T18:38:43.904Z,1.00
2023-03-25T18:41:14.523Z,1.00
2023-03-25T18:43:42.850Z,1.00
2023-03-25T18:46:12.613Z,1.00
2023-03-25T18:48:41.014Z,1.00
2023-03-25T18:51:12.010Z,1.00
2023-03-25T18:53:40.550Z,1.00
2023-03-25T18:56:09.834Z,1.00
2023-03-25T18:58:39.603Z,1.00
2023-03-25T19:01:10.148Z,1.00
2023-03-25T19:03:41.385Z,1.00
2023-03-25T19:06:11.505Z,1.00
2023-03-25T19:08:40.170Z,1.00
2023-03-25T19:11:20.006Z,1.00
2023-03-25T19:13:51.296Z,1.00
2023-03-25T19:16:19.869Z,1.00
2023-03-25T19:18:48.369Z,1.00
2023-03-25T19:21:18.094Z,1.00
2023-03-25T19:23:47.031Z,1.00
2023-03-25T19:26:15.640Z,1.00
2023-03-25T19:28:44.514Z,1.00
2023-03-25T19:31:16.737Z,1.00
2023-03-25T19:33:45.266Z,1.00
2023-03-25T19:36:15.372Z,1.00
2023-03-25T19:38:44.181Z,1.00
2023-03-25T19:41:13.890Z,1.00
2023-03-25T19:43:43.142Z,1.00
2023-03-25T19:46:11.681Z,1.00
2023-03-25T19:48:41.733Z,1.00
2023-03-25T19:51:10.681Z,1.00
2023-03-25T19:53:40.314Z,1.00
2023-03-25T19:56:14.007Z,1.00
2023-03-25T19:58:42.694Z,1.00
2023-03-25T20:01:12.340Z,1.00
2023-03-25T20:03:42.307Z,1.00
2023-03-25T20:06:10.911Z,1.00
2023-03-25T20:08:39.874Z,1.00
2023-03-25T20:11:12.357Z,1.00
2023-03-25T20:13:40.887Z,1.00
2023-03-25T20:16:10.660Z,1.00
2023-03-25T20:18:41.574Z,1.00
2023-03-25T20:21:12.060Z,1.00
2023-03-25T20:23:41.329Z,1.00
2023-03-25T20:26:09.792Z,1.00
2023-03-25T20:28:38.318Z,1.00
2023-03-25T20:31:18.604Z,1.00
2023-03-25T20:33:47.485Z,1.00
2023-03-25T20:36:17.359Z,1.00
2023-03-25T20:38:56.787Z,1.00
2023-03-25T20:41:26.514Z,1.00
2023-03-25T20:43:55.643Z,1.00
2023-03-25T20:46:28.558Z,1.00
2023-03-25T20:48:58.224Z,1.00
2023-03-25T20:51:28.132Z,1.00
2023-03-25T20:53:58.127Z,1.00
2023-03-25T20:56:27.673Z,1.00
2023-03-25T20:58:56.507Z,1.00
2023-03-25T21:01:25.214Z,1.00
2023-03-25T21:03:53.863Z,1.00
2023-03-25T21:06:25.425Z,1.00
2023-03-25T21:09:00.931Z,1.00
2023-03-25T21:11:31.451Z,1.00
2023-03-25T21:14:00.097Z,1.00
2023-03-25T21:16:28.687Z,1.00
2023-03-25T21:19:01.872Z,1.00
2023-03-25T21:21:31.061Z,1.00
2023-03-25T21:24:01.561Z,1.00
2023-03-25T21:26:32.385Z,1.00
2023-03-25T21:29:01.703Z,1.00
2023-03-25T21:31:31.242Z,1.00
2023-03-25T21:34:00.354Z,1.70
2023-03-25T21:36:30.344Z,21.00
2023-03-25T21:39:01.327Z,29.20
2023-03-25T21:41:31.176Z,4.40
2023-03-25T21:44:00.254Z,14.70
2023-03-25T21:46:28.681Z,8.20
2023-03-25T21:48:58.798Z,22.50
2023-03-25T21:51:31.015Z,26.60
2023-03-25T21:54:03.284Z,28.50
2023-03-25T21:56:33.639Z,27.40
2023-03-25T21:59:04.812Z,8.20
2023-03-25T22:01:33.443Z,3.10
2023-03-25T22:04:04.156Z,6.20
2023-03-25T22:06:36.655Z,6.90
2023-03-25T22:09:09.013Z,11.90
2023-03-25T22:11:40.253Z,11.80
2023-03-25T22:14:09.939Z,8.00
2023-03-25T22:16:40.105Z,1.00
2023-03-25T22:19:09.472Z,1.00
2023-03-25T22:21:39.463Z,1.00
2023-03-25T22:24:09.968Z,1.00
2023-03-25T22:26:39.978Z,1.00
2023-03-25T22:29:09.675Z,1.00
2023-03-25T22:31:40.043Z,1.00
2023-03-25T22:34:13.257Z,3.70
2023-03-25T22:36:46.913Z,4.30
2023-03-25T22:39:18.248Z,3.90
2023-03-25T22:41:46.654Z,8.60
2023-03-25T22:44:17.227Z,8.70
2023-03-25T22:46:46.169Z,8.60
2023-03-25T22:49:14.734Z,11.00
2023-03-25T22:51:45.049Z,13.10
2023-03-25T22:54:13.878Z,14.00
2023-03-25T22:56:44.712Z,16.70
2023-03-25T22:59:14.147Z,16.20
2023-03-25T23:01:43.571Z,16.20
2023-03-25T23:04:12.150Z,19.00
2023-03-25T23:06:42.004Z,20.70
2023-03-25T23:09:11.651Z,21.30
2023-03-25T23:11:40.485Z,15.10
2023-03-25T23:14:13.289Z,15.30
2023-03-25T23:16:42.502Z,10.80
2023-03-25T23:19:11.381Z,10.70
2023-03-25T23:21:40.889Z,12.70
2023-03-25T23:24:10.520Z,16.80
2023-03-25T23:26:40.378Z,11.70
2023-03-25T23:29:11.249Z,10.70
2023-03-25T23:31:41.421Z,10.80
2023-03-25T23:34:11.896Z,9.70
2023-03-25T23:36:40.821Z,10.70
2023-03-25T23:39:11.310Z,10.80
2023-03-25T23:41:40.322Z,11.80
2023-03-25T23:44:10.144Z,12.30
2023-03-25T23:46:38.869Z,10.70
2023-03-25T23:49:07.939Z,10.80
2023-03-25T23:51:37.662Z,12.70
2023-03-25T23:54:06.794Z,13.20
2023-03-25T23:56:35.512Z,13.50
2023-03-25T23:59:05.543Z,15.00
